Time;durP1;ratioP1;P1;durP2;ratioP2;P2;SDS_P1;SDS_P2;PMS_P1;PMS_P2;Temp;Humidity;BMP_temperature;BMP_pressure;BME280_temperature;BME280_humidity;BME280_pressure;Samples;Min_cycle;Max_cycle;Signal;HPM_P1;HPM_P2
2023/05/23 00:01:07;;;;;;;12.73;11.50;;;16.20;99.90;;;;;;4974714;28;20543;-76
2023/05/23 00:03:36;;;;;;;14.10;11.87;;;16.10;99.90;;;;;;4974427;28;20443;-76
2023/05/23 00:06:06;;;;;;;11.83;10.50;;;16.10;99.90;;;;;;4974514;28;20467;-76
2023/05/23 00:08:36;;;;;;;11.93;10.73;;;16.10;99.90;;;;;;4974880;28;20393;-77
2023/05/23 00:11:04;;;;;;;12.40;11.07;;;16.10;99.90;;;;;;4974464;28;20469;-76
2023/05/23 00:13:33;;;;;;;11.67;10.47;;;16.10;99.90;;;;;;4973053;28;20955;-77
2023/05/23 00:16:02;;;;;;;13.30;11.53;;;16.10;99.90;;;;;;4973063;28;20516;-77
2023/05/23 00:18:30;;;;;;;12.23;11.03;;;16.10;99.90;;;;;;4973055;28;20432;-77
2023/05/23 00:20:58;;;;;;;13.30;11.90;;;16.10;99.90;;;;;;4974158;28;20564;-77
2023/05/23 00:23:28;;;;;;;14.20;11.83;;;16.10;99.90;;;;;;4972877;28;20486;-77
2023/05/23 00:25:59;;;;;;;14.00;12.70;;;16.10;99.90;;;;;;4972827;28;20466;-77
2023/05/23 00:28:27;;;;;;;13.50;11.97;;;16.10;99.90;;;;;;4973016;28;20442;-77
2023/05/23 00:30:55;;;;;;;14.87;13.37;;;16.10;99.90;;;;;;4972955;28;20482;-77
2023/05/23 00:33:24;;;;;;;12.30;11.00;;;16.10;99.90;;;;;;4973015;28;20421;-77
2023/05/23 00:35:52;;;;;;;13.00;11.80;;;16.10;99.90;;;;;;4974458;28;20458;-77
2023/05/23 00:38:20;;;;;;;12.03;10.67;;;16.00;99.90;;;;;;4972796;28;20533;-77
2023/05/23 00:40:48;;;;;;;11.27;10.07;;;16.00;99.90;;;;;;4972634;28;20495;-77
2023/05/23 00:43:19;;;;;;;11.47;10.10;;;16.00;99.90;;;;;;4974275;28;20437;-77
2023/05/23 00:45:48;;;;;;;11.63;10.20;;;16.00;99.90;;;;;;4972785;28;20455;-77
2023/05/23 00:48:16;;;;;;;12.00;10.87;;;16.00;99.90;;;;;;4975074;28;20420;-77
2023/05/23 00:50:45;;;;;;;11.90;10.70;;;16.00;99.90;;;;;;4976331;28;20416;-77
2023/05/23 00:53:13;;;;;;;12.43;11.13;;;16.00;99.90;;;;;;4976291;28;20445;-77
2023/05/23 00:55:41;;;;;;;11.60;10.50;;;16.00;99.90;;;;;;4976123;28;20471;-77
2023/05/23 00:58:12;;;;;;;12.00;10.10;;;16.00;99.90;;;;;;4976298;28;20441;-76
2023/05/23 01:00:43;;;;;;;10.70;9.60;;;16.00;99.90;;;;;;4976193;28;20977;-77
2023/05/23 01:03:16;;;;;;;11.63;10.40;;;16.00;99.90;;;;;;4976211;28;20942;-77
2023/05/23 01:05:45;;;;;;;10.93;9.80;;;16.00;99.90;;;;;;4976213;28;20504;-77
2023/05/23 01:08:14;;;;;;;14.40;12.27;;;16.00;99.90;;;;;;4976131;28;20450;-76
2023/05/23 01:10:43;;;;;;;12.67;10.80;;;16.00;99.90;;;;;;4976104;28;20445;-76
2023/05/23 01:13:21;;;;;;;13.60;12.20;;;16.00;99.90;;;;;;4976021;28;20441;-77
2023/05/23 01:15:59;;;;;;;16.63;12.07;;;16.00;99.90;;;;;;4976042;28;20850;-77
2023/05/23 01:18:40;;;;;;;13.00;11.70;;;16.00;99.90;;;;;;4976154;28;20939;-77
2023/05/23 01:21:12;;;;;;;13.77;12.30;;;16.00;99.90;;;;;;4975972;28;20508;-77
2023/05/23 01:24:06;;;;;;;14.63;13.13;;;16.00;99.90;;;;;;4976020;28;20451;-77
2023/05/23 01:26:48;;;;;;;13.30;12.00;;;16.00;99.90;;;;;;4976209;28;20474;-77
2023/05/23 01:29:24;;;;;;;14.33;12.83;;;16.00;99.90;;;;;;4977267;28;20434;-77
2023/05/23 01:31:55;;;;;;;14.70;13.30;;;16.00;99.90;;;;;;4976066;28;20446;-77
2023/05/23 01:34:23;;;;;;;18.00;12.73;;;16.00;99.90;;;;;;4977276;28;20529;-77
2023/05/23 01:36:55;;;;;;;15.47;13.63;;;16.00;99.90;;;;;;4975711;28;20444;-77
2023/05/23 01:39:24;;;;;;;16.37;14.77;;;16.00;99.90;;;;;;4977185;28;20481;-76
2023/05/23 01:41:53;;;;;;;17.13;15.50;;;16.00;99.90;;;;;;4975510;28;20521;-77
2023/05/23 01:44:23;;;;;;;18.87;17.00;;;16.00;99.90;;;;;;4977052;28;20463;-77
2023/05/23 01:46:51;;;;;;;20.27;17.67;;;16.00;99.90;;;;;;4975450;28;20528;-77
2023/05/23 01:49:22;;;;;;;19.83;17.90;;;16.00;99.90;;;;;;4976674;28;20404;-77
2023/05/23 01:51:50;;;;;;;20.87;18.83;;;16.00;99.90;;;;;;4975379;28;20504;-77
2023/05/23 01:54:19;;;;;;;21.10;19.03;;;16.00;99.90;;;;;;4975270;28;20508;-77
2023/05/23 01:56:50;;;;;;;23.57;19.80;;;16.00;99.90;;;;;;4975247;28;20482;-77
2023/05/23 01:59:18;;;;;;;22.50;20.07;;;16.00;99.90;;;;;;4974812;28;20504;-77
2023/05/23 02:01:48;;;;;;;21.43;19.33;;;16.00;99.90;;;;;;4975166;28;21042;-77
2023/05/23 02:04:16;;;;;;;22.87;20.77;;;15.90;99.90;;;;;;4975029;28;21028;-76
2023/05/23 02:06:45;;;;;;;21.70;19.50;;;15.90;99.90;;;;;;4975147;28;20970;-77
2023/05/23 02:09:13;;;;;;;22.13;20.03;;;15.90;99.90;;;;;;4975321;28;20993;-77
2023/05/23 02:11:42;;;;;;;22.30;19.90;;;15.90;99.90;;;;;;4976284;28;20434;-77
2023/05/23 02:14:11;;;;;;;22.80;20.57;;;15.90;99.90;;;;;;4976383;28;20451;-76
2023/05/23 02:16:39;;;;;;;21.70;19.60;;;15.90;99.90;;;;;;4974904;28;20466;-77
2023/05/23 02:19:09;;;;;;;23.70;21.30;;;15.80;99.90;;;;;;4974910;28;20416;-76
2023/05/23 02:21:38;;;;;;;23.30;21.10;;;15.80;99.90;;;;;;4974736;28;20444;-77
2023/05/23 02:24:06;;;;;;;22.77;20.40;;;15.80;99.90;;;;;;4974732;28;20500;-77
2023/05/23 02:26:34;;;;;;;23.17;20.90;;;15.80;99.90;;;;;;4975979;28;20473;-77
2023/05/23 02:29:02;;;;;;;24.27;21.80;;;15.80;99.90;;;;;;4974641;28;20450;-77
2023/05/23 02:31:31;;;;;;;23.27;20.97;;;15.80;99.90;;;;;;4974574;28;20424;-77
2023/05/23 02:33:59;;;;;;;26.13;23.33;;;15.80;99.90;;;;;;4976419;28;20444;-77
2023/05/23 02:36:32;;;;;;;25.10;22.70;;;15.80;99.90;;;;;;4974505;28;20831;-76
2023/05/23 02:39:00;;;;;;;29.83;26.53;;;15.70;99.90;;;;;;4974505;28;20449;-77
2023/05/23 02:41:29;;;;;;;28.50;25.60;;;15.70;99.90;;;;;;4976039;28;20549;-77
2023/05/23 02:43:57;;;;;;;29.40;26.40;;;15.70;99.90;;;;;;4974403;28;20842;-76
2023/05/23 02:46:26;;;;;;;29.53;26.43;;;15.70;99.90;;;;;;4974377;28;20558;-77
2023/05/23 02:48:55;;;;;;;35.37;27.87;;;15.70;99.90;;;;;;4974201;28;20893;-76
2023/05/23 02:51:23;;;;;;;33.00;29.07;;;15.70;99.90;;;;;;4974261;28;20492;-76
2023/05/23 02:53:52;;;;;;;34.83;29.77;;;15.70;99.90;;;;;;4974040;28;20432;-77
2023/05/23 02:56:21;;;;;;;40.57;32.97;;;15.70;99.90;;;;;;4974209;28;20452;-76
2023/05/23 02:58:49;;;;;;;38.77;33.63;;;15.70;99.90;;;;;;4974972;28;20457;-77
2023/05/23 03:01:18;;;;;;;42.00;34.70;;;15.60;99.90;;;;;;4974115;28;20505;-77
2023/05/23 03:03:46;;;;;;;45.53;36.77;;;15.60;99.90;;;;;;4974156;28;20421;-77
2023/05/23 03:06:15;;;;;;;42.10;32.57;;;15.60;99.90;;;;;;4974183;28;21026;-76
2023/05/23 03:08:44;;;;;;;42.37;34.50;;;15.60;99.90;;;;;;4974349;28;20449;-77
2023/05/23 03:11:14;;;;;;;42.80;35.73;;;15.60;99.90;;;;;;4973197;28;20464;-77
2023/05/23 03:13:44;;;;;;;44.33;35.50;;;15.60;99.90;;;;;;4973906;28;20408;-77
2023/05/23 03:16:12;;;;;;;43.23;34.27;;;15.60;99.90;;;;;;4973675;28;20482;-77
2023/05/23 03:18:41;;;;;;;46.23;35.77;;;15.60;99.90;;;;;;4973925;28;20476;-77
2023/05/23 03:21:09;;;;;;;44.87;35.83;;;15.60;99.90;;;;;;4974027;28;20450;-77
2023/05/23 03:23:37;;;;;;;47.00;36.57;;;15.50;99.90;;;;;;4973598;28;20444;-77
2023/05/23 03:26:06;;;;;;;49.13;35.83;;;15.50;99.90;;;;;;4974976;28;20464;-76
2023/05/23 03:28:36;;;;;;;47.07;38.17;;;15.50;99.90;;;;;;4973594;28;20834;-77
2023/05/23 03:31:04;;;;;;;45.30;35.63;;;15.50;99.90;;;;;;4973620;28;20455;-77
2023/05/23 03:33:33;;;;;;;48.37;33.80;;;15.50;99.90;;;;;;4973491;28;20454;-77
2023/05/23 03:36:01;;;;;;;40.27;34.20;;;15.40;99.90;;;;;;4974981;28;20793;-77
2023/05/23 03:38:29;;;;;;;39.07;33.47;;;15.40;99.90;;;;;;4973348;28;20461;-77
2023/05/23 03:40:57;;;;;;;37.00;33.00;;;15.40;99.90;;;;;;4973467;28;20424;-77
2023/05/23 03:43:25;;;;;;;36.20;30.40;;;15.40;99.90;;;;;;4973394;28;20511;-77
2023/05/23 03:45:55;;;;;;;35.83;30.53;;;15.40;99.90;;;;;;4973373;28;20470;-77
2023/05/23 03:48:23;;;;;;;36.17;30.60;;;15.30;99.90;;;;;;4974544;28;20413;-77
2023/05/23 03:50:52;;;;;;;38.13;30.60;;;15.30;99.90;;;;;;4973432;28;20454;-77
2023/05/23 03:53:20;;;;;;;35.20;31.40;;;15.30;99.90;;;;;;4973292;28;20450;-77
2023/05/23 03:55:48;;;;;;;35.13;30.57;;;15.20;99.90;;;;;;4973663;28;20469;-77
2023/05/23 03:58:16;;;;;;;38.63;31.30;;;15.20;99.90;;;;;;4973369;28;20442;-77
2023/05/23 04:00:48;;;;;;;32.23;28.67;;;15.20;99.90;;;;;;4973551;28;20457;-77
2023/05/23 04:03:18;;;;;;;39.80;32.17;;;15.20;99.90;;;;;;4973380;28;20847;-77
2023/05/23 04:05:46;;;;;;;34.20;28.73;;;15.20;99.90;;;;;;4973272;28;20564;-77
2023/05/23 04:08:15;;;;;;;30.67;26.97;;;15.10;99.90;;;;;;4973187;28;20432;-77
2023/05/23 04:10:43;;;;;;;31.53;28.03;;;15.10;99.90;;;;;;4973230;28;20446;-77
2023/05/23 04:13:12;;;;;;;35.03;28.33;;;15.10;99.90;;;;;;4973054;28;20456;-77
2023/05/23 04:15:41;;;;;;;31.17;24.97;;;15.10;99.90;;;;;;4973340;28;20487;-77
2023/05/23 04:18:11;;;;;;;28.40;25.47;;;15.00;99.90;;;;;;4973952;28;20537;-77
2023/05/23 04:20:41;;;;;;;28.00;25.00;;;15.00;99.90;;;;;;4972988;28;20461;-77
2023/05/23 04:23:09;;;;;;;27.20;24.30;;;15.00;99.90;;;;;;4976863;28;20480;-77
2023/05/23 04:25:40;;;;;;;25.60;22.80;;;15.00;99.90;;;;;;4976820;28;20480;-77
2023/05/23 04:28:38;;;;;;;25.23;22.77;;;15.00;99.90;;;;;;4974110;28;20441;-77
2023/05/23 04:31:07;;;;;;;21.40;19.50;;;15.00;99.90;;;;;;4976864;28;20461;-77
2023/05/23 04:33:38;;;;;;;23.90;21.50;;;14.90;99.90;;;;;;4977045;28;20461;-77
2023/05/23 04:36:09;;;;;;;23.13;20.93;;;14.90;99.90;;;;;;4976753;28;20462;-77
2023/05/23 04:38:40;;;;;;;22.97;20.77;;;14.90;99.90;;;;;;4976701;28;20566;-77
2023/05/23 04:41:12;;;;;;;24.17;21.63;;;14.90;99.90;;;;;;4976560;28;20933;-77
2023/05/23 04:44:04;;;;;;;23.93;21.63;;;14.80;99.90;;;;;;4969982;28;20477;-77
2023/05/23 04:46:40;;;;;;;22.17;20.17;;;14.80;99.90;;;;;;4976495;28;20498;-76
2023/05/23 04:49:32;;;;;;;21.10;19.30;;;14.80;99.90;;;;;;4977271;28;20449;-77
2023/05/23 04:52:02;;;;;;;20.80;19.00;;;14.70;99.90;;;;;;4976638;28;20445;-77
2023/05/23 04:54:32;;;;;;;21.07;19.07;;;14.70;99.90;;;;;;4976551;28;20458;-77
2023/05/23 04:57:04;;;;;;;20.50;18.47;;;14.70;99.90;;;;;;4977271;28;20453;-75
2023/05/23 04:59:33;;;;;;;19.53;17.83;;;14.70;99.90;;;;;;4976471;28;20428;-75
2023/05/23 05:02:02;;;;;;;19.80;18.10;;;14.60;99.90;;;;;;4976272;28;20566;-75
2023/05/23 05:04:30;;;;;;;20.47;18.63;;;14.60;99.90;;;;;;4977538;28;20465;-75
2023/05/23 05:06:59;;;;;;;22.20;20.23;;;14.60;99.90;;;;;;4976006;28;20469;-75
2023/05/23 05:09:29;;;;;;;19.67;18.03;;;14.60;99.90;;;;;;4976141;28;20962;-75
2023/05/23 05:11:57;;;;;;;20.70;18.50;;;14.50;99.90;;;;;;4977840;28;20445;-76
2023/05/23 05:14:26;;;;;;;19.80;18.10;;;14.50;99.90;;;;;;4976036;28;20452;-76
2023/05/23 05:16:56;;;;;;;17.33;15.73;;;14.40;99.90;;;;;;4977087;28;20453;-76
2023/05/23 05:19:28;;;;;;;18.87;17.07;;;14.40;99.90;;;;;;4976315;28;20536;-76
2023/05/23 05:21:58;;;;;;;18.30;16.43;;;14.40;99.90;;;;;;4975905;28;20446;-76
2023/05/23 05:24:28;;;;;;;18.70;16.50;;;14.40;99.90;;;;;;4975650;28;20516;-76
2023/05/23 05:26:57;;;;;;;18.40;16.70;;;14.40;99.90;;;;;;4975656;28;20470;-76
2023/05/23 05:29:27;;;;;;;15.63;14.13;;;14.30;99.90;;;;;;4975611;28;20434;-75
2023/05/23 05:31:56;;;;;;;17.00;15.10;;;14.30;99.90;;;;;;4975610;28;20454;-75
2023/05/23 05:34:24;;;;;;;19.53;17.20;;;14.40;99.90;;;;;;4974893;28;20442;-76
2023/05/23 05:36:55;;;;;;;20.63;17.40;;;14.30;99.90;;;;;;4975427;28;20473;-75
2023/05/23 05:39:26;;;;;;;20.13;17.73;;;14.30;99.90;;;;;;4975530;28;20460;-75
2023/05/23 05:41:56;;;;;;;21.80;18.93;;;14.20;99.90;;;;;;4976187;28;20445;-76
2023/05/23 05:44:25;;;;;;;25.50;18.73;;;14.20;99.90;;;;;;4975301;28;20470;-76
2023/05/23 05:46:54;;;;;;;24.20;18.90;;;14.20;99.90;;;;;;4975321;28;20501;-75
2023/05/23 05:49:22;;;;;;;23.30;18.87;;;14.10;99.90;;;;;;4975381;28;20465;-75
2023/05/23 05:51:50;;;;;;;29.77;18.27;;;14.10;99.90;;;;;;4975220;28;20538;-76
2023/05/23 05:54:19;;;;;;;24.50;18.87;;;14.10;99.90;;;;;;4975057;28;20545;-76
2023/05/23 05:56:47;;;;;;;24.23;15.73;;;14.00;99.90;;;;;;4976624;28;20568;-75
2023/05/23 05:59:17;;;;;;;21.17;15.77;;;14.00;99.90;;;;;;4975207;28;20456;-75
2023/05/23 06:01:45;;;;;;;21.60;16.67;;;14.00;99.90;;;;;;4975146;28;20537;-75
2023/05/23 06:04:13;;;;;;;21.17;15.90;;;13.90;99.90;;;;;;4974962;28;20480;-75
2023/05/23 06:06:42;;;;;;;20.50;15.70;;;13.90;99.90;;;;;;4974908;28;20469;-76
2023/05/23 06:09:10;;;;;;;24.57;16.20;;;13.90;99.90;;;;;;4974936;28;20446;-76
2023/05/23 06:11:39;;;;;;;21.97;16.30;;;13.90;99.90;;;;;;4974865;28;20875;-75
2023/05/23 06:14:08;;;;;;;22.80;14.67;;;13.80;99.90;;;;;;4974989;28;20461;-76
2023/05/23 06:16:41;;;;;;;22.63;14.80;;;13.80;99.90;;;;;;4974830;28;20497;-75
2023/05/23 06:19:09;;;;;;;22.67;13.00;;;13.70;99.90;;;;;;4974791;28;20453;-76
2023/05/23 06:21:39;;;;;;;27.77;13.63;;;13.70;99.90;;;;;;4974806;28;20453;-75
2023/05/23 06:24:10;;;;;;;18.00;11.83;;;13.70;99.90;;;;;;4974711;28;20995;-76
2023/05/23 06:26:38;;;;;;;25.07;12.20;;;13.70;99.90;;;;;;4975772;28;20461;-76
2023/05/23 06:29:06;;;;;;;20.60;11.70;;;13.70;99.90;;;;;;4974722;28;20517;-75
2023/05/23 06:31:35;;;;;;;18.60;10.70;;;13.60;99.90;;;;;;4974528;28;20985;-76
2023/05/23 06:34:07;;;;;;;21.33;10.23;;;13.60;99.90;;;;;;4975771;28;20440;-76
2023/05/23 06:36:35;;;;;;;14.40;9.63;;;13.60;99.90;;;;;;4974488;28;20473;-76
2023/05/23 06:39:03;;;;;;;18.50;9.33;;;13.60;99.90;;;;;;4974381;28;20458;-75
2023/05/23 06:41:31;;;;;;;19.80;7.83;;;13.50;99.90;;;;;;4974452;28;20442;-75
2023/05/23 06:44:00;;;;;;;15.90;8.23;;;13.50;99.90;;;;;;4973985;28;21062;-76
2023/05/23 06:46:30;;;;;;;16.13;8.20;;;13.50;99.90;;;;;;4973877;28;20469;-75
2023/05/23 06:48:59;;;;;;;17.67;8.43;;;13.50;99.90;;;;;;4974500;28;20446;-75
2023/05/23 06:51:43;;;;;;;15.93;7.20;;;13.50;99.90;;;;;;4974469;28;20445;-76
2023/05/23 06:54:12;;;;;;;14.97;8.17;;;13.50;99.90;;;;;;4974411;28;20560;-76
2023/05/23 06:56:40;;;;;;;14.80;8.00;;;13.40;99.90;;;;;;4974119;28;21009;-76
2023/05/23 06:59:08;;;;;;;15.57;7.70;;;13.40;99.90;;;;;;4974163;28;20460;-76
2023/05/23 07:01:36;;;;;;;18.27;7.93;;;13.40;99.90;;;;;;4974537;28;20516;-75
2023/05/23 07:04:04;;;;;;;15.20;7.67;;;13.40;99.90;;;;;;4975378;28;20565;-76
2023/05/23 07:06:35;;;;;;;16.73;7.77;;;13.40;99.90;;;;;;4975045;28;20891;-76
2023/05/23 07:09:07;;;;;;;19.07;7.60;;;13.40;99.90;;;;;;4974539;28;20446;-75
2023/05/23 07:11:38;;;;;;;16.37;7.17;;;13.40;99.90;;;;;;4974993;28;20442;-75
2023/05/23 07:14:07;;;;;;;13.57;7.10;;;13.40;99.90;;;;;;4974568;28;20811;-77
2023/05/23 07:16:42;;;;;;;16.43;5.50;;;13.40;99.90;;;;;;4974169;28;20560;-76
2023/05/23 07:19:11;;;;;;;10.97;5.47;;;13.40;99.90;;;;;;4974113;28;20461;-76
2023/05/23 07:21:46;;;;;;;11.70;5.53;;;13.30;99.90;;;;;;4974194;28;20449;-76
2023/05/23 07:24:18;;;;;;;12.80;6.73;;;13.30;99.90;;;;;;4974237;28;20516;-75
2023/05/23 07:26:47;;;;;;;12.17;6.90;;;13.30;99.90;;;;;;4974108;28;20576;-76
2023/05/23 07:29:15;;;;;;;13.53;6.57;;;13.20;99.90;;;;;;4974126;28;20513;-77
2023/05/23 07:31:46;;;;;;;12.67;6.20;;;13.20;99.90;;;;;;4974104;28;20505;-75
2023/05/23 07:34:14;;;;;;;12.67;7.03;;;13.10;99.90;;;;;;4974138;28;20530;-77
2023/05/23 07:36:52;;;;;;;12.40;6.40;;;13.10;99.90;;;;;;4973988;28;20495;-76
2023/05/23 07:39:23;;;;;;;15.10;7.60;;;13.10;99.90;;;;;;4973791;28;20516;-75
2023/05/23 07:41:52;;;;;;;11.73;6.83;;;13.10;99.90;;;;;;4973945;28;20811;-75
2023/05/23 07:44:21;;;;;;;17.17;6.50;;;13.10;99.90;;;;;;4973988;28;20469;-76
2023/05/23 07:46:53;;;;;;;11.60;5.77;;;13.10;99.90;;;;;;4973643;28;20843;-76
2023/05/23 07:49:22;;;;;;;11.40;6.23;;;13.00;99.90;;;;;;4974056;28;20466;-76
2023/05/23 07:51:50;;;;;;;9.33;5.63;;;13.00;99.90;;;;;;4973815;28;20838;-76
2023/05/23 07:54:19;;;;;;;10.87;5.67;;;13.00;99.90;;;;;;4973579;28;20513;-76
2023/05/23 07:56:52;;;;;;;9.43;5.47;;;12.90;99.90;;;;;;4973126;28;20894;-75
2023/05/23 07:59:21;;;;;;;11.37;6.73;;;12.90;99.90;;;;;;4973774;28;20516;-76
2023/05/23 08:01:51;;;;;;;14.03;7.50;;;12.90;99.90;;;;;;4973617;28;20437;-76
2023/05/23 08:04:22;;;;;;;16.57;7.07;;;12.90;99.90;;;;;;4973426;28;20462;-77
2023/05/23 08:06:54;;;;;;;17.37;7.57;;;12.80;99.90;;;;;;4973641;28;20468;-76
2023/05/23 08:09:42;;;;;;;16.03;6.97;;;12.80;99.90;;;;;;4973594;28;20452;-77
2023/05/23 08:12:15;;;;;;;15.33;6.97;;;12.80;99.90;;;;;;4973765;28;20460;-76
2023/05/23 08:14:45;;;;;;;15.70;7.80;;;12.80;99.90;;;;;;4974700;28;20858;-77
2023/05/23 08:17:24;;;;;;;13.80;7.17;;;12.80;99.90;;;;;;4973480;28;20954;-77
2023/05/23 08:19:53;;;;;;;18.63;8.20;;;12.70;99.90;;;;;;4973615;28;20453;-76
2023/05/23 08:22:21;;;;;;;16.47;6.97;;;12.80;99.90;;;;;;4973370;28;20454;-76
2023/05/23 08:24:49;;;;;;;16.73;7.67;;;12.80;99.90;;;;;;4976122;28;20572;-76
2023/05/23 08:27:19;;;;;;;17.50;7.20;;;12.70;99.90;;;;;;4975241;28;20878;-75
2023/05/23 08:29:52;;;;;;;16.40;6.67;;;12.70;99.90;;;;;;4975427;28;20453;-75
2023/05/23 08:32:21;;;;;;;12.77;5.93;;;12.70;99.90;;;;;;4973895;28;20508;-76
2023/05/23 08:34:49;;;;;;;17.80;6.77;;;12.70;99.90;;;;;;4973927;28;20449;-76
2023/05/23 08:37:17;;;;;;;15.77;6.63;;;12.70;99.90;;;;;;4973405;28;20537;-76
2023/05/23 08:39:46;;;;;;;14.23;6.60;;;12.70;99.90;;;;;;4973209;28;20481;-76
2023/05/23 08:42:34;;;;;;;16.20;5.90;;;12.70;99.90;;;;;;4974986;28;20950;-76
2023/05/23 08:45:05;;;;;;;13.20;6.20;;;12.60;99.90;;;;;;4973262;28;20485;-76
2023/05/23 08:47:36;;;;;;;15.30;6.40;;;12.60;99.90;;;;;;4974923;28;20880;-76
2023/05/23 08:50:08;;;;;;;14.57;6.50;;;12.60;99.90;;;;;;4973350;28;20458;-76
2023/05/23 08:52:40;;;;;;;12.17;6.27;;;12.60;99.90;;;;;;4973226;28;20473;-76
2023/05/23 08:55:10;;;;;;;25.60;7.10;;;12.60;99.90;;;;;;4974502;28;20561;-76
2023/05/23 08:57:42;;;;;;;16.37;6.47;;;12.60;99.90;;;;;;4973256;28;20821;-76
2023/05/23 09:00:34;;;;;;;14.43;7.10;;;12.60;99.90;;;;;;4973535;28;20493;-76
2023/05/23 09:03:03;;;;;;;16.53;6.77;;;12.60;99.90;;;;;;4973366;28;20449;-76
2023/05/23 09:05:43;;;;;;;13.17;6.67;;;12.60;99.90;;;;;;4973216;28;20830;-76
2023/05/23 09:08:12;;;;;;;15.70;7.10;;;12.60;99.90;;;;;;4973829;28;20861;-76
2023/05/23 09:10:41;;;;;;;16.87;7.30;;;12.60;99.90;;;;;;4976656;28;20453;-76
2023/05/23 09:13:13;;;;;;;12.07;7.10;;;12.60;99.90;;;;;;4976981;28;20496;-76
2023/05/23 09:15:58;;;;;;;12.90;6.67;;;12.60;99.90;;;;;;4977529;28;20483;-75
2023/05/23 09:18:33;;;;;;;15.27;8.57;;;12.60;99.90;;;;;;4976802;28;21033;-76
2023/05/23 09:21:03;;;;;;;18.00;7.73;;;12.60;99.90;;;;;;4977945;28;20458;-75
2023/05/23 09:23:34;;;;;;;17.00;7.67;;;12.60;99.90;;;;;;4978380;28;20450;-76
2023/05/23 09:26:04;;;;;;;18.60;7.80;;;12.50;99.90;;;;;;4977632;28;20478;-76
2023/05/23 09:28:36;;;;;;;15.50;7.00;;;12.50;99.90;;;;;;4976572;28;20959;-76
2023/05/23 09:31:06;;;;;;;16.23;7.17;;;12.50;99.90;;;;;;4976318;28;20458;-76
2023/05/23 09:33:40;;;;;;;13.33;6.73;;;12.50;99.90;;;;;;4976304;28;20963;-76
2023/05/23 09:36:09;;;;;;;13.20;6.80;;;12.50;99.90;;;;;;4976229;28;20488;-76
2023/05/23 09:38:39;;;;;;;16.70;6.10;;;12.50;99.90;;;;;;4976225;28;20457;-76
2023/05/23 09:41:07;;;;;;;15.20;6.40;;;12.50;99.90;;;;;;4976073;28;21042;-76
2023/05/23 09:43:38;;;;;;;14.97;6.47;;;12.60;99.90;;;;;;4976973;28;20509;-76
2023/05/23 09:46:10;;;;;;;12.97;5.53;;;12.60;99.90;;;;;;4975837;28;20469;-76
2023/05/23 09:48:39;;;;;;;13.67;6.23;;;12.60;99.90;;;;;;4975865;28;20442;-76
2023/05/23 09:51:09;;;;;;;14.40;5.20;;;12.60;99.90;;;;;;4975844;28;20564;-76
2023/05/23 09:53:37;;;;;;;14.80;5.43;;;12.70;99.90;;;;;;4976059;28;20458;-77
2023/05/23 09:56:06;;;;;;;14.50;5.77;;;12.80;99.90;;;;;;4977040;28;20460;-77
2023/05/23 09:58:38;;;;;;;15.03;5.87;;;12.90;99.90;;;;;;4976664;28;20870;-77
2023/05/23 10:01:09;;;;;;;14.20;5.70;;;12.90;99.90;;;;;;4976751;28;20450;-77
2023/05/23 10:03:45;;;;;;;16.47;6.53;;;12.90;99.90;;;;;;4975400;28;20449;-77
2023/05/23 10:06:18;;;;;;;17.50;6.50;;;13.00;99.90;;;;;;4976601;28;20974;-77
2023/05/23 10:08:54;;;;;;;12.30;6.20;;;13.00;99.90;;;;;;4976477;28;20445;-77
2023/05/23 10:12:06;;;;;;;19.40;6.27;;;13.00;99.90;;;;;;4975138;28;20536;-77
2023/05/23 10:14:40;;;;;;;16.93;6.40;;;13.10;99.90;;;;;;4974858;28;20442;-77
2023/05/23 10:17:15;;;;;;;15.37;6.50;;;13.10;99.90;;;;;;4976312;28;20504;-77
2023/05/23 10:19:48;;;;;;;12.70;5.83;;;13.10;99.90;;;;;;4974766;28;20933;-77
2023/05/23 10:22:17;;;;;;;12.60;6.00;;;13.20;99.90;;;;;;4975198;28;20453;-76
2023/05/23 10:24:45;;;;;;;16.20;6.70;;;13.20;99.90;;;;;;4976094;28;20441;-77
2023/05/23 10:27:15;;;;;;;16.20;7.00;;;13.20;99.90;;;;;;4975637;28;20476;-77
2023/05/23 10:29:45;;;;;;;20.50;6.67;;;13.20;99.90;;;;;;4975113;28;20973;-78
2023/05/23 10:32:15;;;;;;;15.60;5.93;;;13.40;99.90;;;;;;4974784;28;20446;-77
2023/05/23 10:35:02;;;;;;;11.30;5.00;;;13.40;99.90;;;;;;4974680;28;20625;-77
2023/05/23 10:37:38;;;;;;;13.77;5.40;;;13.40;99.90;;;;;;4976311;28;20516;-77
2023/05/23 10:40:16;;;;;;;11.20;5.10;;;13.50;99.90;;;;;;4975823;28;20444;-77
2023/05/23 10:42:52;;;;;;;11.00;5.40;;;13.60;99.90;;;;;;4974939;28;20442;-77
2023/05/23 10:45:23;;;;;;;15.67;5.83;;;13.70;99.90;;;;;;4975618;28;20485;-77
2023/05/23 10:47:52;;;;;;;12.73;5.53;;;13.80;99.90;;;;;;4974453;28;20958;-77
2023/05/23 10:50:32;;;;;;;15.77;5.87;;;13.90;99.90;;;;;;4974394;28;20965;-77
2023/05/23 10:53:01;;;;;;;15.27;6.17;;;13.90;99.90;;;;;;4974403;28;20489;-77
2023/05/23 10:55:32;;;;;;;16.10;6.07;;;14.00;99.90;;;;;;4974213;28;20572;-77
2023/05/23 10:58:11;;;;;;;17.93;7.00;;;14.00;99.90;;;;;;4976056;28;20516;-77
2023/05/23 11:00:51;;;;;;;19.00;6.30;;;14.10;99.90;;;;;;4974158;28;20481;-77
2023/05/23 11:03:19;;;;;;;13.97;5.63;;;14.10;99.90;;;;;;4974185;28;20437;-77
2023/05/23 11:05:52;;;;;;;12.90;5.50;;;14.10;99.90;;;;;;4974125;28;21025;-77
2023/05/23 11:08:24;;;;;;;13.80;6.63;;;14.20;99.90;;;;;;4974174;28;20536;-77
2023/05/23 11:11:06;;;;;;;12.93;5.60;;;14.20;99.90;;;;;;4976018;28;20481;-78
2023/05/23 11:13:56;;;;;;;16.27;6.27;;;14.30;99.90;;;;;;4974408;28;20452;-77
2023/05/23 11:16:30;;;;;;;21.23;6.17;;;14.30;99.90;;;;;;4965238;28;20472;-77
2023/05/23 11:19:21;;;;;;;14.97;6.00;;;14.30;99.90;;;;;;4974247;28;20812;-77
2023/05/23 11:21:54;;;;;;;12.00;6.17;;;14.30;99.90;;;;;;4975530;28;20841;-78
2023/05/23 11:24:22;;;;;;;13.23;5.27;;;14.40;99.90;;;;;;4975199;28;20897;-77
2023/05/23 11:26:58;;;;;;;13.47;6.17;;;14.40;99.90;;;;;;4973927;28;20474;-77
2023/05/23 11:29:28;;;;;;;17.20;6.37;;;14.40;99.90;;;;;;4973880;28;20548;-77
2023/05/23 11:31:58;;;;;;;14.43;5.47;;;14.30;99.90;;;;;;4973297;28;20450;-78
2023/05/23 11:34:26;;;;;;;14.00;5.43;;;14.30;99.90;;;;;;4973788;28;20500;-77
2023/05/23 11:36:55;;;;;;;15.10;5.50;;;14.40;99.90;;;;;;4973653;28;20932;-78
2023/05/23 11:39:24;;;;;;;16.23;6.90;;;14.40;99.90;;;;;;4973843;28;20450;-77
2023/05/23 11:41:59;;;;;;;15.67;6.33;;;14.40;99.90;;;;;;4975331;28;20540;-77
2023/05/23 11:44:27;;;;;;;18.10;7.03;;;14.40;99.90;;;;;;4974706;28;20496;-77
2023/05/23 11:47:05;;;;;;;13.47;5.80;;;14.40;99.90;;;;;;4974773;28;20469;-76
2023/05/23 11:49:36;;;;;;;12.57;5.50;;;14.40;99.90;;;;;;4974932;28;20449;-77
2023/05/23 11:52:06;;;;;;;15.67;5.67;;;14.40;99.90;;;;;;4973497;28;21026;-77
2023/05/23 11:54:34;;;;;;;14.83;5.53;;;14.40;99.90;;;;;;4973400;28;20461;-77
2023/05/23 11:57:03;;;;;;;13.67;5.77;;;14.40;99.90;;;;;;4974145;28;20469;-77
2023/05/23 11:59:31;;;;;;;12.97;5.73;;;14.40;99.90;;;;;;4974732;28;20975;-77
2023/05/23 12:02:02;;;;;;;11.20;5.00;;;14.40;99.90;;;;;;4974760;28;20836;-77
2023/05/23 12:04:31;;;;;;;14.83;6.10;;;14.40;99.90;;;;;;4974980;28;20950;-77
2023/05/23 12:07:04;;;;;;;16.13;5.33;;;14.40;99.90;;;;;;4975295;28;20519;-77
2023/05/23 12:09:32;;;;;;;12.73;5.60;;;14.50;99.90;;;;;;4974073;28;20445;-77
2023/05/23 12:12:01;;;;;;;13.53;5.83;;;14.50;99.90;;;;;;4973628;28;20445;-77
2023/05/23 12:14:30;;;;;;;17.90;6.07;;;14.50;99.90;;;;;;4973447;28;20829;-77
2023/05/23 12:16:58;;;;;;;13.83;5.67;;;14.50;99.90;;;;;;4974743;28;20967;-77
2023/05/23 12:19:26;;;;;;;14.53;5.50;;;14.60;99.90;;;;;;4973259;28;20947;-76
2023/05/23 12:21:55;;;;;;;18.50;6.03;;;14.70;99.90;;;;;;4973392;28;20548;-77
2023/05/23 12:24:24;;;;;;;9.00;4.50;;;14.70;99.90;;;;;;4973419;28;20446;-77
2023/05/23 12:26:53;;;;;;;9.03;5.10;;;14.60;99.90;;;;;;4973098;28;20474;-77
2023/05/23 12:29:28;;;;;;;12.50;5.40;;;14.60;99.90;;;;;;4974588;28;20471;-77
2023/05/23 12:31:59;;;;;;;11.77;4.80;;;14.60;99.90;;;;;;4974531;28;20485;-77
2023/05/23 12:34:27;;;;;;;10.73;4.50;;;14.60;99.90;;;;;;4973068;28;20532;-76
2023/05/23 12:36:57;;;;;;;13.17;5.73;;;14.70;99.90;;;;;;4973141;28;20501;-77
2023/05/23 12:39:44;;;;;;;10.50;4.50;;;14.80;99.90;;;;;;4973209;28;20477;-77
2023/05/23 12:42:13;;;;;;;13.30;4.90;;;14.90;99.90;;;;;;4973954;28;20540;-77
2023/05/23 12:44:42;;;;;;;12.73;4.40;;;15.00;99.90;;;;;;4976735;28;20446;-77
2023/05/23 12:47:10;;;;;;;11.10;4.30;;;15.00;99.90;;;;;;4978130;28;20484;-77
2023/05/23 12:49:39;;;;;;;10.07;4.07;;;15.20;99.90;;;;;;4977285;28;20969;-77